Time;durP1;ratioP1;P1;durP2;ratioP2;P2;SDS_P1;SDS_P2;PMS_P1;PMS_P2;Temp;Humidity;BMP_temperature;BMP_pressure;BME280_temperature;BME280_humidity;BME280_pressure;Samples;Min_cycle;Max_cycle;Signal;HPM_P1;HPM_P2
2022/04/18 00:01:53;;;;;;;17.83;12.45;;;7.80;99.90;;;;;;5055373;28;20044;-68
2022/04/18 00:04:18;;;;;;;17.20;11.27;;;7.70;99.90;;;;;;5074070;28;20048;-67
2022/04/18 00:06:44;;;;;;;18.02;12.10;;;7.70;99.90;;;;;;5073979;28;20369;-67
2022/04/18 00:09:10;;;;;;;18.48;12.48;;;8.20;99.90;;;;;;5073963;28;20125;-68
2022/04/18 00:11:35;;;;;;;18.92;12.23;;;7.90;99.90;;;;;;5073904;28;20056;-68
2022/04/18 00:14:01;;;;;;;17.15;12.65;;;7.90;99.90;;;;;;5073838;28;20079;-68
2022/04/18 00:16:27;;;;;;;20.60;12.02;;;7.50;99.90;;;;;;5055926;28;20532;-68
2022/04/18 00:18:53;;;;;;;18.88;12.23;;;8.50;99.90;;;;;;5073752;28;20044;-68
2022/04/18 00:21:19;;;;;;;18.33;13.20;;;7.50;99.90;;;;;;5073684;28;20044;-68
2022/04/18 00:23:45;;;;;;;20.92;12.82;;;7.50;99.90;;;;;;5073648;28;20189;-68
2022/04/18 00:26:12;;;;;;;20.77;12.50;;;7.40;99.90;;;;;;5073632;28;20393;-67
2022/04/18 00:28:37;;;;;;;;;;;8.60;99.90;;;;;;5073933;28;20048;-68
2022/04/18 00:31:03;;;;;;;16.85;12.30;;;8.10;99.90;;;;;;5073480;28;19927;-68
2022/04/18 00:33:29;;;;;;;21.42;13.55;;;7.30;99.90;;;;;;5073454;28;20552;-67
2022/04/18 00:35:55;;;;;;;18.77;12.85;;;7.20;99.90;;;;;;5073350;28;20041;-67
2022/04/18 00:38:22;;;;;;;17.67;12.20;;;7.30;99.90;;;;;;5073382;28;20040;-68
2022/04/18 00:40:47;;;;;;;;;;;7.10;99.90;;;;;;5073987;28;20055;-68
2022/04/18 00:43:14;;;;;;;21.50;13.45;;;6.90;99.90;;;;;;5073100;28;19925;-67
2022/04/18 00:45:39;;;;;;;19.38;13.27;;;7.20;99.90;;;;;;5073200;28;20087;-67
2022/04/18 00:48:05;;;;;;;20.60;13.00;;;7.30;99.90;;;;;;5073246;28;20080;-68
2022/04/18 00:50:33;;;;;;;21.50;13.85;;;7.70;99.90;;;;;;5073104;28;20106;-68
2022/04/18 00:52:58;;;;;;;19.95;13.15;;;8.30;99.90;;;;;;5073098;28;20044;-68
2022/04/18 00:55:26;;;;;;;20.20;13.65;;;7.30;99.90;;;;;;5073322;28;20425;-68
2022/04/18 00:57:54;;;;;;;17.38;12.75;;;7.30;99.90;;;;;;5073013;28;20092;-70
2022/04/18 01:00:21;;;;;;;20.08;12.65;;;7.60;99.90;;;;;;5073059;28;20048;-68
2022/04/18 01:02:47;;;;;;;18.63;13.25;;;7.60;99.90;;;;;;5072721;28;20484;-69
2022/04/18 01:05:13;;;;;;;19.48;13.20;;;7.30;99.90;;;;;;5073031;28;20047;-68
2022/04/18 01:07:40;;;;;;;21.65;13.88;;;6.90;99.90;;;;;;5055047;28;20113;-68
2022/04/18 01:10:07;;;;;;;26.95;13.80;;;7.00;99.90;;;;;;5072632;28;20081;-68
2022/04/18 01:12:33;;;;;;;20.13;13.10;;;7.00;99.90;;;;;;5072467;28;20059;-68
2022/04/18 01:14:59;;;;;;;22.92;13.68;;;7.40;99.90;;;;;;5072806;28;20048;-68
2022/04/18 01:17:25;;;;;;;18.08;13.00;;;6.80;99.90;;;;;;5072876;28;20048;-68
2022/04/18 01:19:51;;;;;;;25.10;13.50;;;6.80;99.90;;;;;;5072813;28;20044;-68
2022/04/18 01:22:22;;;;;;;21.42;14.25;;;6.60;99.90;;;;;;5072868;28;20131;-67
2022/04/18 01:30:17;;;;;;;21.85;13.80;;;6.60;99.90;;;;;;5072392;28;20484;-68
2022/04/18 01:32:43;;;;;;;20.58;13.75;;;6.50;99.90;;;;;;5054758;28;20048;-68
2022/04/18 01:35:09;;;;;;;21.80;14.30;;;6.50;99.90;;;;;;5072593;28;20048;-69
2022/04/18 01:37:36;;;;;;;21.38;14.00;;;6.60;99.90;;;;;;5072584;28;20043;-67
2022/04/18 01:40:06;;;;;;;23.42;13.35;;;6.70;99.90;;;;;;5072620;28;20404;-68
2022/04/18 01:42:32;;;;;;;21.52;14.07;;;6.50;99.90;;;;;;5072354;28;20059;-68
2022/04/18 01:45:00;;;;;;;20.02;13.98;;;6.50;99.90;;;;;;5072632;28;20049;-69
2022/04/18 01:47:27;;;;;;;26.30;14.88;;;6.30;99.90;;;;;;5072492;28;20080;-68
2022/04/18 01:49:53;;;;;;;24.77;13.98;;;6.50;99.90;;;;;;5072464;28;20056;-68
2022/04/18 01:52:18;;;;;;;23.98;14.15;;;6.30;99.90;;;;;;5072465;28;20131;-68
2022/04/18 01:54:44;;;;;;;21.00;13.75;;;6.40;99.90;;;;;;5072048;28;20145;-68
2022/04/18 01:57:10;;;;;;;23.58;14.27;;;5.90;99.90;;;;;;5072403;28;20057;-68
2022/04/18 01:59:36;;;;;;;20.60;13.55;;;6.60;99.90;;;;;;5072403;28;20435;-67
2022/04/18 02:02:02;;;;;;;21.23;14.13;;;6.00;99.90;;;;;;5072375;28;20087;-68
2022/04/18 02:04:27;;;;;;;21.05;13.45;;;6.10;99.90;;;;;;5072320;28;20090;-73
2022/04/18 02:06:53;;;;;;;22.77;14.65;;;6.20;99.90;;;;;;5072332;28;20051;-69
2022/04/18 02:09:19;;;;;;;23.00;13.90;;;6.10;99.90;;;;;;5072317;28;20136;-68
2022/04/18 02:11:44;;;;;;;23.38;14.32;;;6.10;99.90;;;;;;5072260;28;20054;-68
2022/04/18 02:14:10;;;;;;;20.95;14.43;;;6.20;99.90;;;;;;5072269;28;20071;-69
2022/04/18 02:16:35;;;;;;;22.30;13.85;;;6.00;99.90;;;;;;5054046;28;20124;-68
2022/04/18 02:19:01;;;;;;;20.90;13.27;;;6.10;99.90;;;;;;5072229;28;20477;-67
2022/04/18 02:21:27;;;;;;;21.13;14.02;;;5.90;99.90;;;;;;5054244;28;20504;-68
2022/04/18 02:23:52;;;;;;;22.50;14.75;;;6.10;99.90;;;;;;5072879;28;20044;-67
2022/04/18 02:26:18;;;;;;;24.58;14.45;;;6.00;99.90;;;;;;5075866;28;20055;-68
2022/04/18 02:28:44;;;;;;;22.92;13.93;;;6.20;99.90;;;;;;5075789;28;20052;-68
2022/04/18 02:31:09;;;;;;;24.85;14.50;;;6.10;99.90;;;;;;5075814;28;20044;-68
2022/04/18 02:33:35;;;;;;;24.67;14.45;;;5.70;99.90;;;;;;5075788;28;20075;-68
2022/04/18 02:36:02;;;;;;;26.85;14.65;;;5.90;99.90;;;;;;5075628;28;20047;-68
2022/04/18 02:38:28;;;;;;;23.70;15.05;;;5.90;99.90;;;;;;5075649;28;20450;-68
2022/04/18 02:40:53;;;;;;;21.70;13.82;;;6.00;99.90;;;;;;5057758;28;20048;-69
2022/04/18 02:43:20;;;;;;;22.58;14.32;;;;;;;;;;5075563;28;20056;-68
2022/04/18 02:45:45;;;;;;;23.13;14.50;;;5.70;99.90;;;;;;5057487;28;20067;-67
2022/04/18 02:48:11;;;;;;;22.95;14.57;;;5.90;99.90;;;;;;5075478;28;20036;-68
2022/04/18 02:50:37;;;;;;;24.50;14.73;;;5.80;99.90;;;;;;5075464;28;20063;-67
2022/04/18 02:53:05;;;;;;;21.58;13.98;;;5.90;99.90;;;;;;5075380;28;20040;-68
2022/04/18 02:55:30;;;;;;;23.23;15.25;;;5.70;99.90;;;;;;5074961;28;20530;-68
2022/04/18 02:57:56;;;;;;;21.00;14.07;;;5.60;99.90;;;;;;5075378;28;20040;-67
2022/04/18 03:00:22;;;;;;;22.15;14.50;;;5.60;99.90;;;;;;5075299;28;20098;-68
2022/04/18 03:02:47;;;;;;;22.88;15.63;;;5.50;99.90;;;;;;5075463;28;20094;-67
2022/04/18 03:05:13;;;;;;;26.23;14.88;;;5.60;99.90;;;;;;5075213;28;20044;-67
2022/04/18 03:07:39;;;;;;;20.45;13.80;;;5.80;99.90;;;;;;5075150;28;20052;-68
2022/04/18 03:10:06;;;;;;;22.98;14.32;;;5.30;99.90;;;;;;5074769;28;20485;-68
2022/04/18 03:12:32;;;;;;;24.23;15.10;;;5.50;99.90;;;;;;5075606;28;20052;-68
2022/04/18 03:14:58;;;;;;;24.17;14.63;;;5.40;99.90;;;;;;5074959;28;20045;-68
2022/04/18 03:17:24;;;;;;;21.90;14.15;;;5.50;99.90;;;;;;5075034;28;20451;-69
2022/04/18 03:19:49;;;;;;;22.85;14.30;;;5.50;99.90;;;;;;5074903;28;20048;-68
2022/04/18 03:22:15;;;;;;;26.45;15.23;;;;;;;;;;5074838;28;20131;-68
2022/04/18 03:24:42;;;;;;;22.77;15.10;;;;;;;;;;5074847;28;20052;-67
2022/04/18 03:27:07;;;;;;;;;;;5.10;99.90;;;;;;5075187;28;20040;-67
2022/04/18 03:29:33;;;;;;;20.65;14.23;;;5.20;99.90;;;;;;5057077;28;19920;-68
2022/04/18 03:31:59;;;;;;;21.27;14.20;;;5.30;99.90;;;;;;5074706;28;20055;-69
2022/04/18 03:34:25;;;;;;;21.48;14.25;;;5.20;99.90;;;;;;5074439;28;20145;-68
2022/04/18 03:39:52;;;;;;;24.30;14.32;;;;;;;;;;5074273;28;20521;-68
2022/04/18 03:42:29;;;;;;;20.63;14.13;;;5.30;99.90;;;;;;5074311;28;20049;-67
2022/04/18 03:44:58;;;;;;;23.23;14.85;;;5.30;99.90;;;;;;5056630;28;20048;-68
2022/04/18 03:47:24;;;;;;;21.10;13.60;;;5.20;99.90;;;;;;5074403;28;20051;-68
2022/04/18 03:49:50;;;;;;;23.13;14.68;;;5.20;99.90;;;;;;5074408;28;20048;-67
2022/04/18 03:52:16;;;;;;;21.13;13.77;;;;;;;;;;5074373;28;20583;-68
2022/04/18 03:54:43;;;;;;;22.20;14.30;;;5.10;99.90;;;;;;5074218;28;20044;-67
2022/04/18 03:57:09;;;;;;;19.13;13.80;;;5.20;99.90;;;;;;5074247;28;20113;-67
2022/04/18 03:59:35;;;;;;;22.50;13.75;;;5.10;99.90;;;;;;5074143;28;20098;-68
2022/04/18 04:02:01;;;;;;;22.38;14.27;;;;;;;;;;5074132;28;20044;-67
2022/04/18 04:04:28;;;;;;;22.27;14.07;;;5.20;99.90;;;;;;5074058;28;20055;-67
2022/04/18 04:06:54;;;;;;;26.77;14.88;;;5.40;99.90;;;;;;5074002;28;20044;-67
2022/04/18 04:09:19;;;;;;;20.75;13.55;;;5.10;99.90;;;;;;5056427;28;20391;-68
2022/04/18 04:11:45;;;;;;;24.20;14.35;;;5.20;99.90;;;;;;5073968;28;20060;-68
2022/04/18 04:14:11;;;;;;;22.08;14.95;;;;;;;;;;5073803;28;20053;-68
2022/04/18 04:16:38;;;;;;;21.05;13.73;;;5.00;99.90;;;;;;5073693;28;20127;-67
2022/04/18 04:19:05;;;;;;;22.13;14.02;;;;;;;;;;5073748;28;20056;-67
2022/04/18 04:21:31;;;;;;;22.98;14.95;;;4.60;99.90;;;;;;5073772;28;20052;-69
2022/04/18 04:23:56;;;;;;;21.23;15.10;;;4.70;99.90;;;;;;5073641;28;20045;-67
2022/04/18 04:26:22;;;;;;;24.08;14.63;;;4.50;99.90;;;;;;5073586;28;20048;-68
2022/04/18 04:28:48;;;;;;;22.73;13.70;;;4.50;99.90;;;;;;5073576;28;20040;-68
2022/04/18 04:31:14;;;;;;;24.08;14.57;;;4.90;99.90;;;;;;5073543;28;20122;-67
2022/04/18 04:33:40;;;;;;;24.67;14.55;;;4.60;99.90;;;;;;5055555;28;20140;-68
2022/04/18 04:36:06;;;;;;;22.55;14.13;;;;;;;;;;5055477;28;20101;-68
2022/04/18 04:38:31;;;;;;;23.08;15.00;;;4.70;99.90;;;;;;5073418;28;20502;-68
2022/04/18 04:40:57;;;;;;;20.27;13.73;;;4.90;99.90;;;;;;5073332;28;20131;-68
2022/04/18 04:43:29;;;;;;;21.10;14.18;;;4.80;99.90;;;;;;5073325;28;20147;-68
2022/04/18 04:46:00;;;;;;;27.58;15.30;;;;;;;;;;5073135;28;20048;-67
2022/04/18 04:48:26;;;;;;;20.92;14.43;;;4.80;99.90;;;;;;5072830;28;20063;-67
2022/04/18 04:50:52;;;;;;;20.60;13.93;;;4.60;99.90;;;;;;5073173;28;20407;-68
2022/04/18 04:53:18;;;;;;;;;;;4.80;99.90;;;;;;5073570;28;20049;-68
2022/04/18 04:55:44;;;;;;;21.08;13.95;;;;;;;;;;5073338;28;20022;-68
2022/04/18 04:58:11;;;;;;;21.13;13.70;;;4.70;99.90;;;;;;5073216;28;20087;-67
2022/04/18 05:00:37;;;;;;;27.17;14.50;;;;;;;;;;5073050;28;20049;-68
2022/04/18 05:03:04;;;;;;;23.00;13.65;;;5.00;99.90;;;;;;5073021;28;20055;-67
2022/04/18 05:05:30;;;;;;;23.35;13.40;;;4.90;99.90;;;;;;5072921;28;20037;-68
2022/04/18 05:07:55;;;;;;;24.70;14.05;;;5.20;99.90;;;;;;5072660;28;20526;-68
2022/04/18 05:10:22;;;;;;;20.23;14.00;;;;;;;;;;5073245;28;20063;-69
2022/04/18 05:12:48;;;;;;;20.10;13.55;;;4.90;99.90;;;;;;5055123;28;20290;-68
2022/04/18 05:15:13;;;;;;;19.08;13.25;;;4.90;99.90;;;;;;5072789;28;20384;-68
2022/04/18 05:17:39;;;;;;;20.35;13.50;;;5.20;99.90;;;;;;5072851;28;20127;-67
2022/04/18 05:20:05;;;;;;;21.95;13.38;;;5.10;99.90;;;;;;5072507;28;20403;-68
2022/04/18 05:22:31;;;;;;;;;;;;;;;;;;5073193;28;20512;-68
2022/04/18 05:24:58;;;;;;;19.52;12.60;;;;;;;;;;5072431;28;19968;-68
2022/04/18 05:27:24;;;;;;;19.55;12.48;;;;;;;;;;5072746;28;20078;-68
2022/04/18 05:29:50;;;;;;;19.38;12.93;;;5.40;99.90;;;;;;5072699;28;20044;-67
2022/04/18 05:32:16;;;;;;;22.10;13.40;;;5.70;99.90;;;;;;5072662;28;20055;-68
2022/04/18 05:34:42;;;;;;;19.38;13.15;;;5.60;99.90;;;;;;5054650;28;20049;-68
2022/04/18 05:37:08;;;;;;;21.33;12.82;;;6.00;99.90;;;;;;5054645;28;20079;-68
2022/04/18 05:39:34;;;;;;;19.50;12.65;;;6.20;99.90;;;;;;5072553;28;20094;-68
2022/04/18 05:42:01;;;;;;;20.15;12.68;;;5.90;99.90;;;;;;5072569;28;20088;-68
2022/04/18 05:44:27;;;;;;;18.63;12.40;;;6.40;99.90;;;;;;5072662;28;20056;-68
2022/04/18 05:46:52;;;;;;;18.23;12.20;;;6.30;99.90;;;;;;5072571;28;20049;-68
2022/04/18 05:49:18;;;;;;;18.17;13.05;;;6.50;99.90;;;;;;5054747;28;20547;-68
2022/04/18 05:51:44;;;;;;;17.52;12.13;;;6.50;99.90;;;;;;5072404;28;20048;-68
2022/04/18 05:54:10;;;;;;;18.20;12.63;;;6.40;99.90;;;;;;5072368;28;20047;-68
2022/04/18 05:56:36;;;;;;;20.38;12.15;;;6.70;99.90;;;;;;5072328;28;20040;-72
2022/04/18 05:59:02;;;;;;;22.98;12.18;;;6.90;99.90;;;;;;5057397;28;20044;-68
2022/04/18 06:01:31;;;;;;;18.42;12.10;;;6.70;99.90;;;;;;5076423;28;20059;-71
2022/04/18 06:03:56;;;;;;;18.23;12.00;;;6.90;99.90;;;;;;5058957;28;20052;-68
2022/04/18 06:06:23;;;;;;;19.38;11.85;;;7.20;99.90;;;;;;5076301;28;20432;-68
2022/04/18 06:08:48;;;;;;;18.27;12.52;;;7.50;99.90;;;;;;5076276;28;20052;-69
2022/04/18 06:11:14;;;;;;;19.35;11.57;;;7.40;99.90;;;;;;5076206;28;20468;-68
2022/04/18 06:13:40;;;;;;;19.48;12.82;;;7.30;99.90;;;;;;5076177;28;20127;-69
2022/04/18 06:16:06;;;;;;;18.58;12.13;;;7.50;99.90;;;;;;5075997;28;20044;-69
2022/04/18 06:18:32;;;;;;;16.92;12.00;;;7.80;99.90;;;;;;5073969;28;20044;-69
2022/04/18 06:20:59;;;;;;;17.98;12.65;;;;;;;;;;5058473;28;20072;-70
2022/04/18 06:23:24;;;;;;;18.63;12.35;;;7.60;99.90;;;;;;5055968;28;20049;-69
2022/04/18 06:25:50;;;;;;;16.13;11.65;;;7.80;99.90;;;;;;5043632;28;20060;-68
2022/04/18 06:28:16;;;;;;;16.73;11.45;;;8.00;99.90;;;;;;5056204;28;20044;-74
2022/04/18 06:30:42;;;;;;;19.63;12.68;;;8.20;99.90;;;;;;5060334;28;20488;-69
2022/04/18 06:33:12;;;;;;;19.95;11.63;;;8.10;99.90;;;;;;5069934;28;20067;-70
2022/04/18 06:35:38;;;;;;;16.70;11.52;;;8.30;99.90;;;;;;5071041;28;20048;-68
2022/04/18 06:38:04;;;;;;;;;;;8.30;99.90;;;;;;5072535;28;20396;-69
2022/04/18 06:40:30;;;;;;;17.55;11.32;;;8.40;99.90;;;;;;5075593;28;19920;-68
2022/04/18 06:42:57;;;;;;;19.50;11.82;;;8.70;99.90;;;;;;5075575;28;20510;-69
2022/04/18 06:45:22;;;;;;;;;;;8.90;99.90;;;;;;5046485;28;20084;-71
2022/04/18 06:47:48;;;;;;;16.30;11.82;;;8.90;99.90;;;;;;5055554;28;19921;-73
2022/04/18 06:50:14;;;;;;;16.83;11.70;;;9.00;99.90;;;;;;5037621;28;20045;-70
2022/04/18 06:52:40;;;;;;;18.30;12.02;;;8.90;99.90;;;;;;5055407;28;20044;-69
2022/04/18 06:55:09;;;;;;;17.35;11.60;;;9.40;99.90;;;;;;5056499;28;20090;-68
2022/04/18 06:57:35;;;;;;;20.98;11.55;;;9.00;99.90;;;;;;5069635;28;20127;-71
2022/04/18 07:05:54;;;;;;;14.63;11.38;;;9.70;99.90;;;;;;5139107;27;20360;-73
2022/04/18 07:08:19;;;;;;;16.67;11.38;;;9.60;99.90;;;;;;5122768;28;20061;-72
2022/04/18 07:10:45;;;;;;;18.30;11.30;;;9.60;99.90;;;;;;5118322;28;20051;-71
2022/04/18 07:13:11;;;;;;;18.48;11.50;;;9.70;99.90;;;;;;5117317;28;20039;-67
2022/04/18 07:15:36;;;;;;;21.20;11.65;;;10.00;99.90;;;;;;5115097;28;20044;-76
2022/04/18 07:18:03;;;;;;;15.95;11.15;;;10.10;99.90;;;;;;5113608;27;20119;-69
2022/04/18 07:20:29;;;;;;;16.67;11.55;;;10.40;99.90;;;;;;5114739;27;20052;-78
2022/04/18 07:22:55;;;;;;;15.75;11.00;;;10.50;99.90;;;;;;5101768;28;20058;-71
2022/04/18 07:25:21;;;;;;;14.95;11.30;;;10.80;99.90;;;;;;5113937;28;20105;-70
2022/04/18 07:27:46;;;;;;;14.40;10.90;;;10.60;99.90;;;;;;5112328;28;20062;-69
2022/04/18 07:30:12;;;;;;;16.30;10.77;;;10.60;99.90;;;;;;5117795;28;20122;-69
2022/04/18 07:32:42;;;;;;;16.58;11.02;;;10.90;99.90;;;;;;5110907;28;20048;-67
2022/04/18 07:35:09;;;;;;;15.82;10.82;;;10.70;99.90;;;;;;5097221;28;20050;-73
2022/04/18 07:37:35;;;;;;;16.25;10.55;;;10.70;99.90;;;;;;5115800;27;20052;-67
2022/04/18 07:40:01;;;;;;;;;;;10.80;99.90;;;;;;5108924;28;20486;-68
2022/04/18 07:42:26;;;;;;;15.45;10.85;;;11.10;99.90;;;;;;5111353;28;19924;-68
2022/04/18 07:44:52;;;;;;;14.57;9.82;;;11.10;99.90;;;;;;5114903;28;20453;-70
2022/04/18 07:47:18;;;;;;;14.95;10.52;;;11.20;99.90;;;;;;5117233;28;20047;-69
2022/04/18 07:49:43;;;;;;;15.02;10.18;;;11.30;99.90;;;;;;5110022;28;20078;-67
2022/04/18 07:52:11;;;;;;;13.32;9.90;;;11.60;99.90;;;;;;5112607;28;20085;-67
2022/04/18 07:54:37;;;;;;;15.20;10.10;;;11.90;99.90;;;;;;5112799;27;20043;-68
2022/04/18 07:57:04;;;;;;;13.98;9.35;;;11.90;99.90;;;;;;5113251;28;20497;-70
2022/04/18 07:59:31;;;;;;;16.35;10.18;;;11.70;99.90;;;;;;5118385;27;20044;-68
2022/04/18 08:01:57;;;;;;;17.02;10.32;;;12.30;99.90;;;;;;5118125;27;20505;-68
2022/04/18 08:04:23;;;;;;;14.15;9.80;;;12.20;99.90;;;;;;5119775;28;20063;-70
2022/04/18 08:06:48;;;;;;;16.50;9.73;;;12.30;99.90;;;;;;5114563;28;20043;-68
2022/04/18 08:09:14;;;;;;;16.23;10.40;;;12.70;99.90;;;;;;5114188;28;20048;-70
2022/04/18 08:11:40;;;;;;;13.60;9.07;;;12.70;99.90;;;;;;5115470;28;20047;-68
2022/04/18 08:14:05;;;;;;;16.15;9.95;;;12.70;99.90;;;;;;5119543;28;20036;-68
2022/04/18 08:16:31;;;;;;;12.32;9.90;;;12.80;99.90;;;;;;5101158;27;20472;-67
2022/04/18 08:18:57;;;;;;;14.38;9.30;;;12.80;99.90;;;;;;5092384;28;20100;-69
2022/04/18 08:21:23;;;;;;;14.05;8.80;;;13.30;99.90;;;;;;5096058;28;20051;-67
2022/04/18 08:23:52;;;;;;;14.10;9.50;;;13.20;99.90;;;;;;5095560;28;20071;-69
2022/04/18 08:26:19;;;;;;;12.20;9.25;;;13.50;99.90;;;;;;5106133;28;20054;-68
2022/04/18 08:28:45;;;;;;;14.88;9.80;;;13.30;99.90;;;;;;5110582;28;20075;-66
2022/04/18 08:31:11;;;;;;;;;;;13.60;99.90;;;;;;5114799;28;20600;-67
2022/04/18 08:33:37;;;;;;;12.82;9.20;;;13.60;99.90;;;;;;5113146;28;19923;-67
2022/04/18 08:36:03;;;;;;;15.20;9.13;;;13.60;99.90;;;;;;5115792;28;20043;-67
2022/04/18 08:38:29;;;;;;;14.75;9.77;;;13.70;99.90;;;;;;5115439;28;20507;-67
2022/04/18 08:40:56;;;;;;;12.85;9.55;;;14.00;99.90;;;;;;5114701;28;20071;-66
2022/04/18 08:43:22;;;;;;;18.83;9.68;;;13.80;99.90;;;;;;5115705;28;20047;-67
2022/04/18 08:45:49;;;;;;;16.42;9.77;;;14.20;99.90;;;;;;5115561;28;20584;-66
2022/04/18 08:53:48;;;;;;;12.13;9.02;;;14.40;99.90;;;;;;5115485;28;20059;-68
2022/04/18 08:56:14;;;;;;;12.90;9.82;;;14.70;99.90;;;;;;5115380;28;20119;-68
2022/04/18 08:58:40;;;;;;;12.27;9.25;;;14.60;99.90;;;;;;5115328;28;20051;-68
2022/04/18 09:01:07;;;;;;;15.00;9.70;;;14.60;99.90;;;;;;5115251;28;20131;-68
2022/04/18 09:03:36;;;;;;;13.85;9.27;;;14.70;99.90;;;;;;5114633;28;20051;-69
2022/04/18 09:06:12;;;;;;;11.93;9.18;;;14.90;99.90;;;;;;5115338;28;20062;-67
2022/04/18 09:08:46;;;;;;;11.90;9.13;;;14.70;99.90;;;;;;5115153;28;20050;-67
2022/04/18 09:11:26;;;;;;;12.02;8.95;;;14.90;99.90;;;;;;5115071;28;20043;-70
2022/04/18 09:13:57;;;;;;;12.80;8.90;;;14.90;99.90;;;;;;5115132;28;20081;-68
2022/04/18 09:16:29;;;;;;;18.30;8.85;;;15.70;99.90;;;;;;5115023;28;20138;-67
2022/04/18 09:19:12;;;;;;;11.63;8.68;;;15.30;99.90;;;;;;5114943;28;20079;-67
2022/04/18 09:21:58;;;;;;;13.63;9.20;;;15.50;99.90;;;;;;5114898;28;20096;-68
2022/04/18 09:24:34;;;;;;;13.20;9.73;;;15.60;99.90;;;;;;5114852;28;20073;-68
2022/04/18 09:27:14;;;;;;;12.75;8.82;;;15.70;99.90;;;;;;5114324;28;20054;-66
2022/04/18 09:29:40;;;;;;;16.67;9.10;;;15.60;99.90;;;;;;5114524;28;20047;-68
2022/04/18 09:32:10;;;;;;;14.65;8.65;;;15.70;99.90;;;;;;5114648;28;20047;-66
2022/04/18 09:34:37;;;;;;;12.73;8.55;;;15.90;99.90;;;;;;5114839;28;20091;-67
2022/04/18 09:37:29;;;;;;;10.82;8.43;;;16.40;99.90;;;;;;5114569;28;20050;-66
2022/04/18 09:39:55;;;;;;;11.25;8.00;;;16.30;99.90;;;;;;5111825;28;20059;-67
2022/04/18 09:42:22;;;;;;;;;;;16.10;99.90;;;;;;5114852;28;20047;-67
2022/04/18 09:44:48;;;;;;;14.18;9.13;;;16.60;99.90;;;;;;5113227;28;19919;-69
2022/04/18 09:47:16;;;;;;;12.25;8.48;;;16.60;99.70;;;;;;5113390;28;20061;-69
2022/04/18 09:49:42;;;;;;;12.43;8.45;;;16.60;98.60;;;;;;5112941;28;20047;-67
2022/04/18 09:52:10;;;;;;;;;;;16.80;98.40;;;;;;5114730;28;20135;-67
2022/04/18 09:54:40;;;;;;;16.35;9.02;;;16.70;94.30;;;;;;5114219;28;19927;-69
2022/04/18 09:57:06;;;;;;;12.45;8.98;;;16.80;96.80;;;;;;5114225;28;20395;-68
2022/04/18 09:59:32;;;;;;;12.35;7.88;;;16.70;96.30;;;;;;5114012;28;20047;-67
2022/04/18 10:02:01;;;;;;;14.55;8.80;;;16.70;95.40;;;;;;5114070;28;20048;-70
2022/04/18 10:04:28;;;;;;;9.88;8.10;;;16.80;93.50;;;;;;5113588;28;20085;-72
2022/04/18 10:06:55;;;;;;;11.77;8.30;;;17.00;95.00;;;;;;5096077;28;20048;-69
2022/04/18 10:09:22;;;;;;;11.27;8.73;;;17.00;95.20;;;;;;5113917;28;20052;-67
2022/04/18 10:11:49;;;;;;;11.65;8.43;;;16.70;92.10;;;;;;5113846;28;20105;-67
2022/04/18 10:14:15;;;;;;;;;;;17.10;92.10;;;;;;5114307;28;20059;-69
2022/04/18 10:16:41;;;;;;;11.90;8.30;;;17.00;94.20;;;;;;5112519;28;19919;-67
2022/04/18 10:19:21;;;;;;;11.13;7.60;;;17.00;93.20;;;;;;5113740;28;20333;-66
2022/04/18 10:21:58;;;;;;;12.30;7.95;;;17.30;92.10;;;;;;5113863;28;20144;-67
2022/04/18 10:24:50;;;;;;;10.02;7.30;;;17.70;92.80;;;;;;5113701;28;20122;-66
2022/04/18 10:27:54;;;;;;;11.70;7.57;;;17.90;93.10;;;;;;5113741;28;20055;-67
2022/04/18 10:30:20;;;;;;;11.55;7.47;;;19.60;90.60;;;;;;5081624;28;20051;-69
2022/04/18 10:32:47;;;;;;;8.52;7.15;;;17.90;90.00;;;;;;5113260;28;20459;-67
2022/04/18 10:35:14;;;;;;;9.70;6.75;;;17.80;91.00;;;;;;5112011;28;20391;-67
2022/04/18 10:37:43;;;;;;;9.25;6.18;;;18.00;91.30;;;;;;5113539;28;20047;-67
2022/04/18 10:40:09;;;;;;;9.88;7.10;;;18.00;91.70;;;;;;5112848;28;20555;-67
2022/04/18 10:42:42;;;;;;;9.68;7.47;;;18.10;89.50;;;;;;5113382;28;20079;-67
2022/04/18 10:45:14;;;;;;;8.93;7.10;;;18.30;90.80;;;;;;5113284;28;20035;-67
2022/04/18 10:48:05;;;;;;;11.63;7.25;;;18.60;88.00;;;;;;5113429;28;20047;-66
2022/04/18 10:50:48;;;;;;;10.38;7.40;;;18.70;84.90;;;;;;5113297;28;20118;-67
2022/04/18 10:53:22;;;;;;;9.02;6.55;;;18.30;83.80;;;;;;5112198;28;20093;-68
2022/04/18 10:55:51;;;;;;;9.20;6.85;;;18.30;86.90;;;;;;5113269;28;20102;-66
2022/04/18 10:58:21;;;;;;;9.07;7.30;;;18.80;85.30;;;;;;5112925;28;20487;-67
2022/04/18 11:00:54;;;;;;;8.30;7.10;;;18.90;85.60;;;;;;5112857;28;20494;-66
2022/04/18 11:03:35;;;;;;;9.40;6.88;;;18.50;85.50;;;;;;5113253;28;20044;-68
2022/04/18 11:06:09;;;;;;;7.90;5.97;;;18.80;85.50;;;;;;5113309;28;20060;-67
2022/04/18 11:08:39;;;;;;;10.43;7.20;;;18.80;83.80;;;;;;5113239;28;20070;-67
2022/04/18 11:11:06;;;;;;;7.28;5.82;;;18.80;82.30;;;;;;5113063;28;20514;-67
2022/04/18 11:13:34;;;;;;;9.38;6.30;;;19.00;83.00;;;;;;5113122;28;20040;-66
2022/04/18 11:16:22;;;;;;;8.32;5.70;;;18.90;80.10;;;;;;5113172;28;20053;-67
2022/04/18 11:19:16;;;;;;;8.95;6.05;;;18.90;80.50;;;;;;5113061;28;20044;-66
2022/04/18 11:22:00;;;;;;;8.32;6.05;;;19.20;79.90;;;;;;5113048;28;20044;-67
2022/04/18 11:24:35;;;;;;;7.63;5.15;;;19.30;80.70;;;;;;5112964;28;20040;-66
2022/04/18 11:27:02;;;;;;;7.40;4.97;;;19.20;76.30;;;;;;5104443;28;20189;-69
2022/04/18 11:29:33;;;;;;;8.85;5.60;;;19.10;75.70;;;;;;5089773;28;20108;-66
2022/04/18 11:31:59;;;;;;;7.70;6.03;;;19.30;76.60;;;;;;5092695;28;20043;-66
2022/04/18 11:34:27;;;;;;;8.07;6.25;;;19.20;78.70;;;;;;5092860;28;20036;-66
2022/04/18 11:37:02;;;;;;;9.30;6.68;;;20.20;78.70;;;;;;5092393;28;20040;-67
2022/04/18 11:39:44;;;;;;;7.75;5.60;;;19.50;77.90;;;;;;5092488;28;20040;-66
2022/04/18 11:42:18;;;;;;;8.23;5.15;;;19.40;78.10;;;;;;5092551;28;20074;-67
2022/04/18 11:44:45;;;;;;;9.18;6.15;;;19.80;75.30;;;;;;5092403;28;20440;-69
2022/04/18 11:47:22;;;;;;;8.43;6.03;;;19.90;75.80;;;;;;5092132;28;20047;-68
2022/04/18 11:49:52;;;;;;;7.93;6.03;;;19.50;73.70;;;;;;5091962;28;20065;-67
2022/04/18 11:52:20;;;;;;;8.85;6.05;;;19.50;75.10;;;;;;5095662;28;20044;-67
2022/04/18 11:55:06;;;;;;;8.38;6.00;;;20.00;75.50;;;;;;5096313;28;20048;-68
2022/04/18 11:57:37;;;;;;;7.30;5.22;;;19.60;73.60;;;;;;5096263;28;20079;-68
2022/04/18 12:00:08;;;;;;;10.68;5.88;;;19.80;74.70;;;;;;5096059;28;20048;-68
2022/04/18 12:08:06;;;;;;;7.38;5.35;;;19.60;72.00;;;;;;5096037;28;20404;-67
2022/04/18 12:10:35;;;;;;;6.95;5.30;;;19.60;72.40;;;;;;5095900;28;20052;-67
2022/04/18 12:13:06;;;;;;;7.25;5.00;;;19.90;72.40;;;;;;5095877;28;20048;-67
2022/04/18 12:15:32;;;;;;;7.32;5.32;;;19.80;71.60;;;;;;5094765;28;20111;-72
2022/04/18 12:18:16;;;;;;;7.65;5.28;;;19.90;71.20;;;;;;5095745;28;20055;-68
2022/04/18 12:20:46;;;;;;;7.30;4.88;;;20.00;68.50;;;;;;5095825;28;20044;-68
2022/04/18 12:23:30;;;;;;;8.30;5.07;;;20.10;71.40;;;;;;5095696;28;20044;-67
2022/04/18 12:25:57;;;;;;;7.32;5.35;;;20.00;71.00;;;;;;5094352;28;20586;-67
2022/04/18 12:28:28;;;;;;;6.03;4.95;;;20.30;70.60;;;;;;5095582;28;20054;-67
2022/04/18 12:30:55;;;;;;;8.80;4.82;;;20.00;69.50;;;;;;5095530;28;20040;-68
2022/04/18 12:33:23;;;;;;;7.22;4.75;;;20.00;70.50;;;;;;5095509;28;20055;-69
2022/04/18 12:35:51;;;;;;;6.22;4.85;;;20.30;70.00;;;;;;5095384;28;20036;-68
2022/04/18 12:38:34;;;;;;;6.78;4.50;;;20.60;72.10;;;;;;5095344;28;20048;-69
2022/04/18 12:41:01;;;;;;;7.70;4.53;;;20.40;69.90;;;;;;5095195;28;20048;-68
2022/04/18 12:43:29;;;;;;;7.13;4.75;;;20.30;69.20;;;;;;5095234;28;20079;-69
2022/04/18 12:45:59;;;;;;;5.97;4.35;;;20.50;70.50;;;;;;5094827;28;20514;-67
2022/04/18 12:48:27;;;;;;;6.43;4.80;;;20.40;68.90;;;;;;5093911;28;20048;-68
2022/04/18 12:50:55;;;;;;;5.25;4.25;;;20.80;69.40;;;;;;5095156;28;20113;-68
2022/04/18 12:53:32;;;;;;;4.82;4.15;;;20.50;69.80;;;;;;5095072;28;20395;-68
2022/04/18 12:56:07;;;;;;;5.70;4.30;;;20.40;68.60;;;;;;5095095;28;20135;-68
2022/04/18 12:58:39;;;;;;;7.10;4.70;;;20.50;70.10;;;;;;5095098;28;20048;-67
2022/04/18 13:01:05;;;;;;;5.07;4.15;;;21.00;69.40;;;;;;5099938;28;20113;-69
2022/04/18 13:03:41;;;;;;;5.63;4.32;;;21.20;68.70;;;;;;5114111;28;20499;-68
2022/04/18 13:06:06;;;;;;;4.75;4.03;;;21.10;67.60;;;;;;5115341;28;20069;-69
2022/04/18 13:08:37;;;;;;;8.15;3.95;;;21.30;68.60;;;;;;5114076;28;20048;-68
2022/04/18 13:11:02;;;;;;;5.55;4.03;;;21.30;69.00;;;;;;5115243;28;20054;-69
2022/04/18 13:13:28;;;;;;;4.60;3.92;;;21.10;67.80;;;;;;5113698;28;20126;-69
2022/04/18 13:15:54;;;;;;;5.10;3.80;;;21.10;66.40;;;;;;5115076;28;20040;-72
2022/04/18 13:18:22;;;;;;;5.50;3.88;;;21.50;66.90;;;;;;5115042;28;20055;-68